Terminal Aerodrome Forecast
Issued by NWS Quad Cities IA IL

Home | Current Version | Previous Version | Text Only | Print | Product List | Glossary On
Versions: 1 2 3 4 5 6 7 8 9 10 11 12 13 14 15 16 17 18 19 20 21 22 23 24 25 26 27 28 29
000
FTUS43 KDVN 231657 AAB
TAFDBQ
TAF AMD
KDBQ 231657Z 2317/2412 00000KT P6SM VCSH BKN006 OVC040
     FM231900 19009KT P6SM SCT120 BKN250
     FM240000 16007KT P6SM BKN250 PROB30 2404/2407 3SM -TSRA
      BKN030CB
     FM241000 19008KT 5SM BR BKN100=

USA.gov is the U.S. government's official web portal to all federal, state and local government web resources and services.